sensor_id;sensor_type;location;lat;lon;timestamp;temperature;humidity
40153;DHT22;26371;56.992;23.912;2023-06-04T00:00:49;10.10;99.90
40153;DHT22;26371;56.992;23.912;2023-06-04T00:03:17;10.00;99.90
40153;DHT22;26371;56.992;23.912;2023-06-04T00:05:46;10.10;99.90
40153;DHT22;26371;56.992;23.912;2023-06-04T00:08:14;10.10;99.90
40153;DHT22;26371;56.992;23.912;2023-06-04T00:10:43;10.10;99.90
40153;DHT22;26371;56.992;23.912;2023-06-04T00:13:11;10.10;99.90
40153;DHT22;26371;56.992;23.912;2023-06-04T00:15:39;10.10;99.90
40153;DHT22;26371;56.992;23.912;2023-06-04T00:18:09;10.10;99.90
40153;DHT22;26371;56.992;23.912;2023-06-04T00:20:40;10.10;99.90
40153;DHT22;26371;56.992;23.912;2023-06-04T00:23:08;10.20;99.90
40153;DHT22;26371;56.992;23.912;2023-06-04T00:25:37;10.20;99.90
40153;DHT22;26371;56.992;23.912;2023-06-04T00:28:05;10.20;99.90
40153;DHT22;26371;56.992;23.912;2023-06-04T00:30:34;10.20;99.90
40153;DHT22;26371;56.992;23.912;2023-06-04T00:33:02;10.20;99.90
40153;DHT22;26371;56.992;23.912;2023-06-04T00:35:33;10.20;99.90
40153;DHT22;26371;56.992;23.912;2023-06-04T00:38:01;10.20;99.90
40153;DHT22;26371;56.992;23.912;2023-06-04T00:40:29;10.20;99.90
40153;DHT22;26371;56.992;23.912;2023-06-04T00:42:58;10.20;99.90
40153;DHT22;26371;56.992;23.912;2023-06-04T00:45:26;10.20;99.90
40153;DHT22;26371;56.992;23.912;2023-06-04T00:47:58;10.20;99.90
40153;DHT22;26371;56.992;23.912;2023-06-04T00:50:27;10.20;99.90
40153;DHT22;26371;56.992;23.912;2023-06-04T00:52:57;10.30;99.90
40153;DHT22;26371;56.992;23.912;2023-06-04T00:55:25;10.30;99.90
40153;DHT22;26371;56.992;23.912;2023-06-04T00:57:53;10.30;99.90
40153;DHT22;26371;56.992;23.912;2023-06-04T01:00:22;10.30;99.90
40153;DHT22;26371;56.992;23.912;2023-06-04T01:02:50;10.30;99.90
40153;DHT22;26371;56.992;23.912;2023-06-04T01:05:21;10.30;99.90
40153;DHT22;26371;56.992;23.912;2023-06-04T01:07:59;10.40;99.90
40153;DHT22;26371;56.992;23.912;2023-06-04T01:10:27;10.40;99.90
40153;DHT22;26371;56.992;23.912;2023-06-04T01:12:55;10.30;99.90
40153;DHT22;26371;56.992;23.912;2023-06-04T01:15:24;10.40;99.90
40153;DHT22;26371;56.992;23.912;2023-06-04T01:17:54;10.30;99.90
40153;DHT22;26371;56.992;23.912;2023-06-04T01:20:33;10.30;99.90
40153;DHT22;26371;56.992;23.912;2023-06-04T01:23:14;10.30;99.90
40153;DHT22;26371;56.992;23.912;2023-06-04T01:25:42;10.30;99.90
40153;DHT22;26371;56.992;23.912;2023-06-04T01:28:16;10.40;99.90
40153;DHT22;26371;56.992;23.912;2023-06-04T01:30:47;10.40;99.90
40153;DHT22;26371;56.992;23.912;2023-06-04T01:33:18;10.40;99.90
40153;DHT22;26371;56.992;23.912;2023-06-04T01:35:47;10.40;99.90
40153;DHT22;26371;56.992;23.912;2023-06-04T01:38:17;10.40;99.90
40153;DHT22;26371;56.992;23.912;2023-06-04T01:40:46;10.40;99.90
40153;DHT22;26371;56.992;23.912;2023-06-04T01:43:15;10.40;99.90
40153;DHT22;26371;56.992;23.912;2023-06-04T01:45:43;10.50;99.90
40153;DHT22;26371;56.992;23.912;2023-06-04T01:48:12;10.50;99.90
40153;DHT22;26371;56.992;23.912;2023-06-04T01:50:40;10.50;99.90
40153;DHT22;26371;56.992;23.912;2023-06-04T01:53:08;10.40;99.90
40153;DHT22;26371;56.992;23.912;2023-06-04T01:55:38;10.40;99.90
40153;DHT22;26371;56.992;23.912;2023-06-04T01:58:06;10.40;99.90
40153;DHT22;26371;56.992;23.912;2023-06-04T02:00:36;10.40;99.90
40153;DHT22;26371;56.992;23.912;2023-06-04T02:03:04;10.40;99.90
40153;DHT22;26371;56.992;23.912;2023-06-04T02:05:33;10.50;99.90
40153;DHT22;26371;56.992;23.912;2023-06-04T02:08:01;10.40;99.90
40153;DHT22;26371;56.992;23.912;2023-06-04T02:10:32;10.40;99.90
40153;DHT22;26371;56.992;23.912;2023-06-04T02:13:02;10.40;99.90
40153;DHT22;26371;56.992;23.912;2023-06-04T02:15:31;10.40;99.90
40153;DHT22;26371;56.992;23.912;2023-06-04T02:18:10;10.30;99.90
40153;DHT22;26371;56.992;23.912;2023-06-04T02:20:43;10.40;99.90
40153;DHT22;26371;56.992;23.912;2023-06-04T02:23:12;10.40;99.90
40153;DHT22;26371;56.992;23.912;2023-06-04T02:25:41;10.30;99.90
40153;DHT22;26371;56.992;23.912;2023-06-04T02:28:12;10.40;99.90
40153;DHT22;26371;56.992;23.912;2023-06-04T02:30:42;10.40;99.90
40153;DHT22;26371;56.992;23.912;2023-06-04T02:33:10;10.40;99.90
40153;DHT22;26371;56.992;23.912;2023-06-04T02:35:38;10.40;99.90
40153;DHT22;26371;56.992;23.912;2023-06-04T02:38:07;10.40;99.90
40153;DHT22;26371;56.992;23.912;2023-06-04T02:40:36;10.40;99.90
40153;DHT22;26371;56.992;23.912;2023-06-04T02:43:04;10.40;99.90
40153;DHT22;26371;56.992;23.912;2023-06-04T02:45:34;10.40;99.90
40153;DHT22;26371;56.992;23.912;2023-06-04T02:48:03;10.30;99.90
40153;DHT22;26371;56.992;23.912;2023-06-04T02:50:32;10.30;99.90
40153;DHT22;26371;56.992;23.912;2023-06-04T02:53:00;10.30;99.90
40153;DHT22;26371;56.992;23.912;2023-06-04T02:55:29;10.30;99.90
40153;DHT22;26371;56.992;23.912;2023-06-04T02:57:57;10.30;99.90
40153;DHT22;26371;56.992;23.912;2023-06-04T03:00:25;10.30;99.90
40153;DHT22;26371;56.992;23.912;2023-06-04T03:02:55;10.20;99.90
40153;DHT22;26371;56.992;23.912;2023-06-04T03:05:29;10.20;99.90
40153;DHT22;26371;56.992;23.912;2023-06-04T03:08:00;10.20;99.90
40153;DHT22;26371;56.992;23.912;2023-06-04T03:10:29;10.10;99.90
40153;DHT22;26371;56.992;23.912;2023-06-04T03:12:58;10.10;99.90
40153;DHT22;26371;56.992;23.912;2023-06-04T03:15:26;10.10;99.90
40153;DHT22;26371;56.992;23.912;2023-06-04T03:17:56;10.10;99.90
40153;DHT22;26371;56.992;23.912;2023-06-04T03:20:25;10.10;99.90
40153;DHT22;26371;56.992;23.912;2023-06-04T03:22:53;10.10;99.90
40153;DHT22;26371;56.992;23.912;2023-06-04T03:25:22;10.10;99.90
40153;DHT22;26371;56.992;23.912;2023-06-04T03:27:50;10.10;99.90
40153;DHT22;26371;56.992;23.912;2023-06-04T03:30:19;10.10;99.90
40153;DHT22;26371;56.992;23.912;2023-06-04T03:32:57;10.00;99.90
40153;DHT22;26371;56.992;23.912;2023-06-04T03:35:26;10.00;99.90
40153;DHT22;26371;56.992;23.912;2023-06-04T03:37:54;10.00;99.90
40153;DHT22;26371;56.992;23.912;2023-06-04T03:40:23;10.00;99.90
40153;DHT22;26371;56.992;23.912;2023-06-04T03:42:51;10.00;99.90
40153;DHT22;26371;56.992;23.912;2023-06-04T03:45:24;10.00;99.90
40153;DHT22;26371;56.992;23.912;2023-06-04T03:47:53;10.00;99.90
40153;DHT22;26371;56.992;23.912;2023-06-04T03:50:23;10.10;99.90
40153;DHT22;26371;56.992;23.912;2023-06-04T03:52:53;10.10;99.90
40153;DHT22;26371;56.992;23.912;2023-06-04T03:55:22;10.00;99.90
40153;DHT22;26371;56.992;23.912;2023-06-04T03:57:52;10.00;99.90
40153;DHT22;26371;56.992;23.912;2023-06-04T04:00:20;10.10;99.90
40153;DHT22;26371;56.992;23.912;2023-06-04T04:02:52;10.10;99.90
40153;DHT22;26371;56.992;23.912;2023-06-04T04:05:26;10.10;99.90
40153;DHT22;26371;56.992;23.912;2023-06-04T04:07:54;10.10;99.90
40153;DHT22;26371;56.992;23.912;2023-06-04T04:10:27;10.10;99.90
40153;DHT22;26371;56.992;23.912;2023-06-04T04:12:56;10.10;99.90
40153;DHT22;26371;56.992;23.912;2023-06-04T04:15:28;10.20;99.90
40153;DHT22;26371;56.992;23.912;2023-06-04T04:17:56;10.20;99.90
40153;DHT22;26371;56.992;23.912;2023-06-04T04:20:26;10.20;99.90
40153;DHT22;26371;56.992;23.912;2023-06-04T04:23:00;10.20;99.90
40153;DHT22;26371;56.992;23.912;2023-06-04T04:25:30;10.20;99.90
40153;DHT22;26371;56.992;23.912;2023-06-04T04:28:01;10.20;99.90
40153;DHT22;26371;56.992;23.912;2023-06-04T04:30:34;10.20;99.90
40153;DHT22;26371;56.992;23.912;2023-06-04T04:33:04;10.30;99.90
40153;DHT22;26371;56.992;23.912;2023-06-04T04:35:40;10.30;99.90
40153;DHT22;26371;56.992;23.912;2023-06-04T04:38:09;10.30;99.90
40153;DHT22;26371;56.992;23.912;2023-06-04T04:40:44;10.30;99.90
40153;DHT22;26371;56.992;23.912;2023-06-04T04:43:15;10.30;99.90
40153;DHT22;26371;56.992;23.912;2023-06-04T04:45:43;10.40;99.90
40153;DHT22;26371;56.992;23.912;2023-06-04T04:48:12;10.40;99.90
40153;DHT22;26371;56.992;23.912;2023-06-04T04:50:42;10.40;99.90
40153;DHT22;26371;56.992;23.912;2023-06-04T04:53:10;10.50;99.90
40153;DHT22;26371;56.992;23.912;2023-06-04T04:55:39;10.50;99.90
40153;DHT22;26371;56.992;23.912;2023-06-04T04:58:07;10.60;99.90
40153;DHT22;26371;56.992;23.912;2023-06-04T05:00:36;10.60;99.90
40153;DHT22;26371;56.992;23.912;2023-06-04T05:03:04;10.70;99.90
40153;DHT22;26371;56.992;23.912;2023-06-04T05:05:33;10.70;99.90
40153;DHT22;26371;56.992;23.912;2023-06-04T05:08:05;10.80;99.90
40153;DHT22;26371;56.992;23.912;2023-06-04T05:10:38;10.80;99.90
40153;DHT22;26371;56.992;23.912;2023-06-04T05:13:08;10.80;99.90
40153;DHT22;26371;56.992;23.912;2023-06-04T05:16:00;10.90;99.90
40153;DHT22;26371;56.992;23.912;2023-06-04T05:18:37;10.90;99.90
40153;DHT22;26371;56.992;23.912;2023-06-04T05:21:11;11.00;99.90
40153;DHT22;26371;56.992;23.912;2023-06-04T05:23:47;11.10;99.90
40153;DHT22;26371;56.992;23.912;2023-06-04T05:26:18;11.20;99.90
40153;DHT22;26371;56.992;23.912;2023-06-04T05:28:51;11.30;99.90
40153;DHT22;26371;56.992;23.912;2023-06-04T05:31:22;11.30;99.90
40153;DHT22;26371;56.992;23.912;2023-06-04T05:33:55;11.40;99.90
40153;DHT22;26371;56.992;23.912;2023-06-04T05:36:27;11.40;99.90
40153;DHT22;26371;56.992;23.912;2023-06-04T05:38:59;11.50;99.90
40153;DHT22;26371;56.992;23.912;2023-06-04T05:41:35;11.60;99.90
40153;DHT22;26371;56.992;23.912;2023-06-04T05:44:04;11.60;99.90
40153;DHT22;26371;56.992;23.912;2023-06-04T05:46:33;11.60;99.90
40153;DHT22;26371;56.992;23.912;2023-06-04T05:49:01;11.70;99.90
40153;DHT22;26371;56.992;23.912;2023-06-04T05:51:30;11.70;99.90
40153;DHT22;26371;56.992;23.912;2023-06-04T05:54:00;11.70;99.90
40153;DHT22;26371;56.992;23.912;2023-06-04T05:56:30;11.70;99.90
40153;DHT22;26371;56.992;23.912;2023-06-04T05:58:59;11.80;99.90
40153;DHT22;26371;56.992;23.912;2023-06-04T06:01:28;11.80;99.90
40153;DHT22;26371;56.992;23.912;2023-06-04T06:03:56;11.90;99.90
40153;DHT22;26371;56.992;23.912;2023-06-04T06:06:27;11.90;99.90
40153;DHT22;26371;56.992;23.912;2023-06-04T06:08:56;12.00;99.90
40153;DHT22;26371;56.992;23.912;2023-06-04T06:11:27;12.10;99.90
40153;DHT22;26371;56.992;23.912;2023-06-04T06:13:56;12.20;99.90
40153;DHT22;26371;56.992;23.912;2023-06-04T06:16:25;12.30;99.90
40153;DHT22;26371;56.992;23.912;2023-06-04T06:18:53;12.40;99.90
40153;DHT22;26371;56.992;23.912;2023-06-04T06:21:22;12.50;99.90
40153;DHT22;26371;56.992;23.912;2023-06-04T06:23:51;12.60;99.90
40153;DHT22;26371;56.992;23.912;2023-06-04T06:26:19;12.70;99.90
40153;DHT22;26371;56.992;23.912;2023-06-04T06:28:53;12.80;99.90
40153;DHT22;26371;56.992;23.912;2023-06-04T06:31:22;12.80;99.90
40153;DHT22;26371;56.992;23.912;2023-06-04T06:33:50;12.80;99.90
40153;DHT22;26371;56.992;23.912;2023-06-04T06:36:19;12.80;99.90
40153;DHT22;26371;56.992;23.912;2023-06-04T06:38:47;12.80;99.90
40153;DHT22;26371;56.992;23.912;2023-06-04T06:41:16;12.80;99.90
40153;DHT22;26371;56.992;23.912;2023-06-04T06:43:45;12.80;99.90
40153;DHT22;26371;56.992;23.912;2023-06-04T06:46:14;12.80;99.90
40153;DHT22;26371;56.992;23.912;2023-06-04T06:48:43;12.80;99.90
40153;DHT22;26371;56.992;23.912;2023-06-04T06:51:12;12.80;99.90
40153;DHT22;26371;56.992;23.912;2023-06-04T06:53:41;12.70;99.90
40153;DHT22;26371;56.992;23.912;2023-06-04T06:56:10;12.80;99.90
40153;DHT22;26371;56.992;23.912;2023-06-04T06:58:38;12.80;99.90
40153;DHT22;26371;56.992;23.912;2023-06-04T07:01:06;12.80;99.90
40153;DHT22;26371;56.992;23.912;2023-06-04T07:03:37;12.90;99.90
40153;DHT22;26371;56.992;23.912;2023-06-04T07:06:06;13.00;99.90
40153;DHT22;26371;56.992;23.912;2023-06-04T07:08:35;13.00;99.90
40153;DHT22;26371;56.992;23.912;2023-06-04T07:11:03;13.00;99.90
40153;DHT22;26371;56.992;23.912;2023-06-04T07:13:32;12.90;99.90
40153;DHT22;26371;56.992;23.912;2023-06-04T07:16:02;12.80;99.90
40153;DHT22;26371;56.992;23.912;2023-06-04T07:18:30;12.70;99.90
40153;DHT22;26371;56.992;23.912;2023-06-04T07:21:00;12.70;99.90
40153;DHT22;26371;56.992;23.912;2023-06-04T07:23:29;12.80;99.90
40153;DHT22;26371;56.992;23.912;2023-06-04T07:25:57;12.80;99.90
40153;DHT22;26371;56.992;23.912;2023-06-04T07:28:26;12.90;99.90
40153;DHT22;26371;56.992;23.912;2023-06-04T07:30:54;13.00;99.90
40153;DHT22;26371;56.992;23.912;2023-06-04T07:33:22;13.00;99.90
40153;DHT22;26371;56.992;23.912;2023-06-04T07:35:54;12.90;99.90
40153;DHT22;26371;56.992;23.912;2023-06-04T07:38:24;13.00;99.90
40153;DHT22;26371;56.992;23.912;2023-06-04T07:40:52;13.00;99.90
40153;DHT22;26371;56.992;23.912;2023-06-04T07:43:20;13.10;99.90
40153;DHT22;26371;56.992;23.912;2023-06-04T07:45:49;13.10;99.90
40153;DHT22;26371;56.992;23.912;2023-06-04T07:48:17;13.20;99.90
40153;DHT22;26371;56.992;23.912;2023-06-04T07:50:45;13.20;99.90
40153;DHT22;26371;56.992;23.912;2023-06-04T07:53:14;13.20;99.90
40153;DHT22;26371;56.992;23.912;2023-06-04T07:55:44;13.20;99.90
40153;DHT22;26371;56.992;23.912;2023-06-04T07:58:12;13.30;99.90
40153;DHT22;26371;56.992;23.912;2023-06-04T08:00:41;13.30;99.90
40153;DHT22;26371;56.992;23.912;2023-06-04T08:03:09;13.40;99.90
40153;DHT22;26371;56.992;23.912;2023-06-04T08:05:38;13.40;99.90
40153;DHT22;26371;56.992;23.912;2023-06-04T08:08:06;13.40;99.90
40153;DHT22;26371;56.992;23.912;2023-06-04T08:10:35;13.40;99.90
40153;DHT22;26371;56.992;23.912;2023-06-04T08:13:05;13.40;99.90
40153;DHT22;26371;56.992;23.912;2023-06-04T08:15:33;13.40;99.90
40153;DHT22;26371;56.992;23.912;2023-06-04T08:18:01;13.40;99.90
40153;DHT22;26371;56.992;23.912;2023-06-04T08:20:30;13.40;99.90
40153;DHT22;26371;56.992;23.912;2023-06-04T08:22:58;13.40;99.90
40153;DHT22;26371;56.992;23.912;2023-06-04T08:25:27;13.40;99.90
40153;DHT22;26371;56.992;23.912;2023-06-04T08:27:56;13.30;99.90
40153;DHT22;26371;56.992;23.912;2023-06-04T08:30:26;13.30;99.90
40153;DHT22;26371;56.992;23.912;2023-06-04T08:32:55;13.30;99.90
40153;DHT22;26371;56.992;23.912;2023-06-04T08:35:23;13.40;99.90
40153;DHT22;26371;56.992;23.912;2023-06-04T08:37:51;13.30;99.90
40153;DHT22;26371;56.992;23.912;2023-06-04T08:40:20;13.20;99.90
40153;DHT22;26371;56.992;23.912;2023-06-04T08:42:49;13.20;99.90
40153;DHT22;26371;56.992;23.912;2023-06-04T08:45:18;13.10;99.90
40153;DHT22;26371;56.992;23.912;2023-06-04T08:47:50;13.10;99.90
40153;DHT22;26371;56.992;23.912;2023-06-04T08:50:19;13.10;99.90
40153;DHT22;26371;56.992;23.912;2023-06-04T08:52:49;13.10;99.90
40153;DHT22;26371;56.992;23.912;2023-06-04T08:55:17;13.10;99.90
40153;DHT22;26371;56.992;23.912;2023-06-04T08:57:46;13.20;99.90
40153;DHT22;26371;56.992;23.912;2023-06-04T09:00:15;13.30;99.90
40153;DHT22;26371;56.992;23.912;2023-06-04T09:02:45;13.40;99.90
40153;DHT22;26371;56.992;23.912;2023-06-04T09:05:18;13.40;99.90
40153;DHT22;26371;56.992;23.912;2023-06-04T09:07:47;13.50;99.90
40153;DHT22;26371;56.992;23.912;2023-06-04T09:10:18;13.50;99.90
40153;DHT22;26371;56.992;23.912;2023-06-04T09:12:46;13.50;99.90
40153;DHT22;26371;56.992;23.912;2023-06-04T09:15:15;13.40;99.90
40153;DHT22;26371;56.992;23.912;2023-06-04T09:17:43;13.50;99.90
40153;DHT22;26371;56.992;23.912;2023-06-04T09:20:20;13.40;99.90
40153;DHT22;26371;56.992;23.912;2023-06-04T09:22:48;13.40;99.90
40153;DHT22;26371;56.992;23.912;2023-06-04T09:25:20;13.40;99.90
40153;DHT22;26371;56.992;23.912;2023-06-04T09:27:49;13.40;99.90
40153;DHT22;26371;56.992;23.912;2023-06-04T09:30:17;13.40;99.90
40153;DHT22;26371;56.992;23.912;2023-06-04T09:32:46;13.30;99.90
40153;DHT22;26371;56.992;23.912;2023-06-04T09:35:15;13.30;99.90
40153;DHT22;26371;56.992;23.912;2023-06-04T09:37:53;13.30;99.90
40153;DHT22;26371;56.992;23.912;2023-06-04T09:40:45;13.30;99.90
40153;DHT22;26371;56.992;23.912;2023-06-04T09:43:20;13.40;99.90
40153;DHT22;26371;56.992;23.912;2023-06-04T09:45:49;13.40;99.90
40153;DHT22;26371;56.992;23.912;2023-06-04T09:48:19;13.40;99.90
40153;DHT22;26371;56.992;23.912;2023-06-04T09:50:47;13.40;99.90
40153;DHT22;26371;56.992;23.912;2023-06-04T09:53:18;13.50;99.90
40153;DHT22;26371;56.992;23.912;2023-06-04T09:55:55;13.40;99.90
40153;DHT22;26371;56.992;23.912;2023-06-04T09:58:24;13.50;99.90
40153;DHT22;26371;56.992;23.912;2023-06-04T10:00:54;13.50;99.90
40153;DHT22;26371;56.992;23.912;2023-06-04T10:03:24;13.50;99.90
40153;DHT22;26371;56.992;23.912;2023-06-04T10:05:57;13.60;99.90
40153;DHT22;26371;56.992;23.912;2023-06-04T10:08:27;13.70;99.90
40153;DHT22;26371;56.992;23.912;2023-06-04T10:10:56;13.80;99.90
40153;DHT22;26371;56.992;23.912;2023-06-04T10:13:24;13.90;99.90
40153;DHT22;26371;56.992;23.912;2023-06-04T10:16:01;14.00;99.90
40153;DHT22;26371;56.992;23.912;2023-06-04T10:19:07;14.00;99.90
40153;DHT22;26371;56.992;23.912;2023-06-04T10:21:35;14.10;99.90
40153;DHT22;26371;56.992;23.912;2023-06-04T10:24:06;14.20;99.90
40153;DHT22;26371;56.992;23.912;2023-06-04T10:26:35;14.30;99.90
40153;DHT22;26371;56.992;23.912;2023-06-04T10:29:05;14.30;99.90
40153;DHT22;26371;56.992;23.912;2023-06-04T10:31:34;14.30;99.90
40153;DHT22;26371;56.992;23.912;2023-06-04T10:34:02;14.40;99.90
40153;DHT22;26371;56.992;23.912;2023-06-04T10:36:41;14.40;99.90
40153;DHT22;26371;56.992;23.912;2023-06-04T10:39:11;14.50;99.90
40153;DHT22;26371;56.992;23.912;2023-06-04T10:41:40;14.50;99.90
40153;DHT22;26371;56.992;23.912;2023-06-04T10:44:09;14.60;99.90
40153;DHT22;26371;56.992;23.912;2023-06-04T10:46:40;14.80;99.90
40153;DHT22;26371;56.992;23.912;2023-06-04T10:49:09;14.80;99.90
40153;DHT22;26371;56.992;23.912;2023-06-04T10:51:38;14.80;99.90
40153;DHT22;26371;56.992;23.912;2023-06-04T10:54:06;14.80;99.90
40153;DHT22;26371;56.992;23.912;2023-06-04T10:56:36;14.80;99.90
40153;DHT22;26371;56.992;23.912;2023-06-04T10:59:14;14.80;99.90
40153;DHT22;26371;56.992;23.912;2023-06-04T11:01:43;14.90;99.90
40153;DHT22;26371;56.992;23.912;2023-06-04T11:04:18;14.90;99.90
40153;DHT22;26371;56.992;23.912;2023-06-04T11:06:46;14.90;99.90
40153;DHT22;26371;56.992;23.912;2023-06-04T11:09:15;14.90;99.90
40153;DHT22;26371;56.992;23.912;2023-06-04T11:11:57;14.90;99.90
40153;DHT22;26371;56.992;23.912;2023-06-04T11:14:25;14.90;99.90
40153;DHT22;26371;56.992;23.912;2023-06-04T11:16:54;15.10;99.90
40153;DHT22;26371;56.992;23.912;2023-06-04T11:19:22;15.20;99.90
40153;DHT22;26371;56.992;23.912;2023-06-04T11:21:51;15.40;99.90
40153;DHT22;26371;56.992;23.912;2023-06-04T11:24:19;15.60;99.90
40153;DHT22;26371;56.992;23.912;2023-06-04T11:26:48;15.60;99.90
40153;DHT22;26371;56.992;23.912;2023-06-04T11:29:37;15.50;99.90
40153;DHT22;26371;56.992;23.912;2023-06-04T11:32:07;15.30;99.90
40153;DHT22;26371;56.992;23.912;2023-06-04T11:34:36;15.00;99.90
40153;DHT22;26371;56.992;23.912;2023-06-04T11:37:08;14.70;99.90
40153;DHT22;26371;56.992;23.912;2023-06-04T11:39:36;14.40;99.90
40153;DHT22;26371;56.992;23.912;2023-06-04T11:42:06;14.20;99.90
40153;DHT22;26371;56.992;23.912;2023-06-04T11:44:35;14.00;99.90
40153;DHT22;26371;56.992;23.912;2023-06-04T11:47:06;13.80;99.90
40153;DHT22;26371;56.992;23.912;2023-06-04T11:49:36;13.70;99.90
40153;DHT22;26371;56.992;23.912;2023-06-04T11:52:04;13.60;99.90
40153;DHT22;26371;56.992;23.912;2023-06-04T11:54:34;13.50;99.90
40153;DHT22;26371;56.992;23.912;2023-06-04T11:57:05;13.20;99.90
40153;DHT22;26371;56.992;23.912;2023-06-04T11:59:34;13.20;99.90
40153;DHT22;26371;56.992;23.912;2023-06-04T12:02:03;13.10;99.90
40153;DHT22;26371;56.992;23.912;2023-06-04T12:04:33;13.00;99.90
40153;DHT22;26371;56.992;23.912;2023-06-04T12:07:02;12.70;99.90
40153;DHT22;26371;56.992;23.912;2023-06-04T12:09:32;12.60;99.90
40153;DHT22;26371;56.992;23.912;2023-06-04T12:12:02;12.50;99.90
40153;DHT22;26371;56.992;23.912;2023-06-04T12:14:31;12.60;99.90
40153;DHT22;26371;56.992;23.912;2023-06-04T12:17:00;12.60;99.90
40153;DHT22;26371;56.992;23.912;2023-06-04T12:19:29;12.60;99.90
40153;DHT22;26371;56.992;23.912;2023-06-04T12:22:00;12.60;99.90
40153;DHT22;26371;56.992;23.912;2023-06-04T12:24:29;12.80;99.90
40153;DHT22;26371;56.992;23.912;2023-06-04T12:27:02;12.90;99.90
40153;DHT22;26371;56.992;23.912;2023-06-04T12:29:59;13.00;99.90
40153;DHT22;26371;56.992;23.912;2023-06-04T12:32:28;13.00;99.90
40153;DHT22;26371;56.992;23.912;2023-06-04T12:34:57;12.90;99.90
40153;DHT22;26371;56.992;23.912;2023-06-04T12:37:26;12.90;99.90
40153;DHT22;26371;56.992;23.912;2023-06-04T12:39:55;13.00;99.90
40153;DHT22;26371;56.992;23.912;2023-06-04T12:42:24;12.90;99.90
40153;DHT22;26371;56.992;23.912;2023-06-04T12:44:54;12.80;99.90
40153;DHT22;26371;56.992;23.912;2023-06-04T12:47:23;12.70;99.90
40153;DHT22;26371;56.992;23.912;2023-06-04T12:49:52;12.60;99.90
40153;DHT22;26371;56.992;23.912;2023-06-04T12:52:21;12.50;99.90
40153;DHT22;26371;56.992;23.912;2023-06-04T12:54:50;12.50;99.90
40153;DHT22;26371;56.992;23.912;2023-06-04T12:57:19;12.60;99.90
40153;DHT22;26371;56.992;23.912;2023-06-04T12:59:48;12.70;99.90
40153;DHT22;26371;56.992;23.912;2023-06-04T13:02:16;12.80;99.90
40153;DHT22;26371;56.992;23.912;2023-06-04T13:04:45;12.80;99.90
40153;DHT22;26371;56.992;23.912;2023-06-04T13:07:14;12.90;99.90
40153;DHT22;26371;56.992;23.912;2023-06-04T13:09:42;12.90;99.90
40153;DHT22;26371;56.992;23.912;2023-06-04T13:12:12;13.00;99.90
40153;DHT22;26371;56.992;23.912;2023-06-04T13:14:41;13.10;99.90
40153;DHT22;26371;56.992;23.912;2023-06-04T13:17:10;13.20;99.90
40153;DHT22;26371;56.992;23.912;2023-06-04T13:19:48;13.30;99.90
40153;DHT22;26371;56.992;23.912;2023-06-04T13:22:17;13.40;99.90
40153;DHT22;26371;56.992;23.912;2023-06-04T13:24:45;13.40;99.90
40153;DHT22;26371;56.992;23.912;2023-06-04T13:27:16;13.50;99.90
40153;DHT22;26371;56.992;23.912;2023-06-04T13:29:44;13.40;99.90
40153;DHT22;26371;56.992;23.912;2023-06-04T13:32:13;13.30;99.90
40153;DHT22;26371;56.992;23.912;2023-06-04T13:34:41;13.30;99.90
40153;DHT22;26371;56.992;23.912;2023-06-04T13:37:10;13.30;99.90
40153;DHT22;26371;56.992;23.912;2023-06-04T13:39:39;13.20;99.90
40153;DHT22;26371;56.992;23.912;2023-06-04T13:42:08;13.30;99.90
40153;DHT22;26371;56.992;23.912;2023-06-04T13:44:38;13.40;99.90
40153;DHT22;26371;56.992;23.912;2023-06-04T13:47:06;13.40;99.90
40153;DHT22;26371;56.992;23.912;2023-06-04T13:49:34;13.40;99.90
40153;DHT22;26371;56.992;23.912;2023-06-04T13:52:03;13.40;99.90
40153;DHT22;26371;56.992;23.912;2023-06-04T13:54:31;13.40;99.90
40153;DHT22;26371;56.992;23.912;2023-06-04T13:57:01;13.40;99.90
40153;DHT22;26371;56.992;23.912;2023-06-04T13:59:29;13.40;99.90
40153;DHT22;26371;56.992;23.912;2023-06-04T14:01:59;13.30;99.90
40153;DHT22;26371;56.992;23.912;2023-06-04T14:04:28;13.30;99.90
40153;DHT22;26371;56.992;23.912;2023-06-04T14:06:57;13.30;99.90
40153;DHT22;26371;56.992;23.912;2023-06-04T14:09:25;13.30;99.90
40153;DHT22;26371;56.992;23.912;2023-06-04T14:11:54;13.20;99.90
40153;DHT22;26371;56.992;23.912;2023-06-04T14:14:23;13.20;99.90
40153;DHT22;26371;56.992;23.912;2023-06-04T14:16:51;13.20;99.90
40153;DHT22;26371;56.992;23.912;2023-06-04T14:19:25;13.20;99.90
40153;DHT22;26371;56.992;23.912;2023-06-04T14:21:54;13.10;99.90
40153;DHT22;26371;56.992;23.912;2023-06-04T14:24:22;13.20;99.90
40153;DHT22;26371;56.992;23.912;2023-06-04T14:26:51;13.20;99.90
40153;DHT22;26371;56.992;23.912;2023-06-04T14:29:19;13.10;99.90
40153;DHT22;26371;56.992;23.912;2023-06-04T14:31:48;13.10;99.90
40153;DHT22;26371;56.992;23.912;2023-06-04T14:34:16;13.10;99.90
40153;DHT22;26371;56.992;23.912;2023-06-04T14:36:47;13.10;99.90
40153;DHT22;26371;56.992;23.912;2023-06-04T14:39:15;13.10;99.90
40153;DHT22;26371;56.992;23.912;2023-06-04T14:41:46;13.00;99.90
40153;DHT22;26371;56.992;23.912;2023-06-04T14:44:14;13.00;99.90
40153;DHT22;26371;56.992;23.912;2023-06-04T14:46:43;13.10;99.90
40153;DHT22;26371;56.992;23.912;2023-06-04T14:49:12;13.10;99.90
40153;DHT22;26371;56.992;23.912;2023-06-04T14:51:40;13.10;99.90
40153;DHT22;26371;56.992;23.912;2023-06-04T14:54:10;13.20;99.90
40153;DHT22;26371;56.992;23.912;2023-06-04T14:56:38;13.20;99.90
40153;DHT22;26371;56.992;23.912;2023-06-04T14:59:07;13.10;99.90
40153;DHT22;26371;56.992;23.912;2023-06-04T15:01:38;13.10;99.90
40153;DHT22;26371;56.992;23.912;2023-06-04T15:04:07;13.00;99.90
40153;DHT22;26371;56.992;23.912;2023-06-04T15:06:36;13.00;99.90
40153;DHT22;26371;56.992;23.912;2023-06-04T15:09:04;12.90;99.90
40153;DHT22;26371;56.992;23.912;2023-06-04T15:11:34;13.00;99.90
40153;DHT22;26371;56.992;23.912;2023-06-04T15:14:03;12.90;99.90
40153;DHT22;26371;56.992;23.912;2023-06-04T15:16:31;13.00;99.90
40153;DHT22;26371;56.992;23.912;2023-06-04T15:19:00;13.00;99.90
40153;DHT22;26371;56.992;23.912;2023-06-04T15:21:29;13.00;99.90
40153;DHT22;26371;56.992;23.912;2023-06-04T15:23:57;13.10;99.90
40153;DHT22;26371;56.992;23.912;2023-06-04T15:26:26;13.20;99.90
40153;DHT22;26371;56.992;23.912;2023-06-04T15:28:56;13.30;99.90
40153;DHT22;26371;56.992;23.912;2023-06-04T15:31:24;13.50;99.90